Overview Statistics Trail Chart Weather Telemetry Raw packets
 

This is the latest recevied weather packets stored in our database for station/object YD2CLX-11. If no packets are shown the sender has not sent any weather packets the latest 10 day(s).

<< 5 6 7 8 9 10 11 >>
Time Temp. Humidity Pressure Rain* Wind** Luminosity Snow
1788505944 36.67° C 46% 996.9 hPa - - - -
1788505343 36.11° C 45% 997 hPa - - - -
1788504742 36.67° C 45% 996.9 hPa - - - -
1788504140 36.67° C 44% 997.2 hPa - - - -
1788503539 36.11° C 45% 997.4 hPa - - - -
1788502938 36.11° C 44% 997.5 hPa - - - -
1788502337 36.11° C 43% 997.6 hPa - - - -
1788501738 36.11° C 43% 997.7 hPa - - - -
1788501135 35.56° C 45% 997.7 hPa - - - -
1788500534 36.67° C 43% 997.9 hPa - - - -
1788499933 36.11° C 44% 998 hPa - - - -
1788499333 36.11° C 44% 998.1 hPa - - - -
1788498732 35.56° C 45% 998.4 hPa - - - -
1788498130 36.11° C 44% 998.5 hPa - - - -
1788497529 35° C 45% 998.7 hPa - - - -
1788496928 37.22° C 41% 998.7 hPa - - - -
1788496327 35° C 45% 999.1 hPa - - - -
1788495726 35.56° C 43% 999.2 hPa - - - -
1788495125 36.11° C 43% 999.3 hPa - - - -
1788494524 35.56° C 44% 999.5 hPa - - - -
1788493923 35.56° C 44% 999.7 hPa - - - -
1788493322 36.67° C 42% 999.8 hPa - - - -
1788492721 36.67° C 43% 1000.2 hPa - - - -
1788492120 36.11° C 42% 1000.2 hPa - - - -
1788491519 35.56° C 44% 1000.4 hPa - - - -

* Rain since midnight (hover to see other rain measurements)
** Current wind speed in m/s (hover to see current wind gust speed)